createdAt,value
2017-01-19T00:02:12.150Z,99.99
2017-01-19T00:07:08.549Z,99.99
2017-01-19T00:12:04.931Z,99.99
2017-01-19T00:17:02.102Z,99.99
2017-01-19T00:21:58.190Z,99.99
2017-01-19T00:26:54.826Z,99.99
2017-01-19T00:31:51.205Z,99.32
2017-01-19T00:36:47.515Z,99.60
2017-01-19T00:46:47.942Z,99.32
2017-01-19T00:51:44.255Z,98.57
2017-01-19T00:56:40.478Z,98.28
2017-01-19T01:01:36.578Z,98.19
2017-01-19T01:06:32.945Z,98.94
2017-01-19T01:11:30.350Z,98.28
2017-01-19T01:16:26.512Z,98.66
2017-01-19T01:21:23.535Z,98.57
2017-01-19T01:26:19.962Z,98.38
2017-01-19T01:31:17.353Z,98.66
2017-01-19T01:36:13.045Z,99.13
2017-01-19T01:41:09.370Z,98.85
2017-01-19T01:46:06.573Z,98.94
2017-01-19T01:51:03.032Z,99.41
2017-01-19T01:55:59.085Z,99.22
2017-01-19T02:00:55.339Z,99.32
2017-01-19T02:05:51.512Z,99.13
2017-01-19T02:10:48.113Z,98.85
2017-01-19T02:15:44.494Z,99.04
2017-01-19T02:20:41.299Z,99.41
2017-01-19T02:25:37.712Z,99.46
2017-01-19T02:30:34.099Z,99.51
2017-01-19T02:35:30.449Z,99.46
2017-01-19T02:40:26.549Z,99.08
2017-01-19T02:45:25.252Z,98.71
2017-01-19T02:50:20.704Z,97.77
2017-01-19T02:55:16.817Z,98.61
2017-01-19T03:00:13.805Z,97.77
2017-01-19T03:05:10.041Z,97.58
2017-01-19T03:10:06.264Z,98.47
2017-01-19T03:15:02.521Z,98.71
2017-01-19T03:19:59.757Z,98.90
2017-01-19T03:24:56.236Z,98.14
2017-01-19T03:29:52.698Z,98.19
2017-01-19T03:34:49.922Z,98.38
2017-01-19T03:39:46.166Z,98.00
2017-01-19T03:44:42.354Z,97.39
2017-01-19T03:49:38.906Z,96.82
2017-01-19T03:54:35.162Z,95.26
2017-01-19T03:59:31.338Z,94.89
2017-01-19T04:04:27.361Z,95.64
2017-01-19T04:09:24.161Z,95.64
2017-01-19T04:14:20.518Z,96.49
2017-01-19T04:19:16.827Z,95.92
2017-01-19T04:24:14.118Z,96.77
2017-01-19T04:29:10.260Z,96.96
2017-01-19T04:34:07.019Z,95.64
2017-01-19T04:39:03.199Z,95.07
2017-01-19T04:44:00.484Z,95.45
2017-01-19T04:48:56.598Z,95.92
2017-01-19T04:53:52.978Z,95.92
2017-01-19T04:58:49.219Z,96.49
2017-01-19T05:03:45.513Z,96.96
2017-01-19T05:08:42.030Z,96.68
2017-01-19T05:13:38.211Z,96.68
2017-01-19T05:18:34.405Z,96.68
2017-01-19T05:23:30.548Z,96.77
2017-01-19T05:28:26.646Z,97.34
2017-01-19T05:33:22.918Z,97.91
2017-01-19T05:38:19.099Z,98.28
2017-01-19T05:43:15.461Z,98.61
2017-01-19T05:48:11.541Z,99.04
2017-01-19T05:53:07.700Z,98.57
2017-01-19T05:58:04.518Z,98.10
2017-01-19T06:03:00.617Z,97.62
2017-01-19T06:07:56.757Z,96.96
2017-01-19T06:12:53.218Z,96.86
2017-01-19T06:17:49.495Z,97.34
2017-01-19T06:22:45.771Z,97.81
2017-01-19T06:27:41.934Z,97.72
2017-01-19T06:32:38.076Z,97.91
2017-01-19T06:37:34.189Z,97.34
2017-01-19T06:42:30.768Z,97.43
2017-01-19T06:47:27.073Z,96.77
2017-01-19T06:52:23.451Z,97.53
2017-01-19T06:57:20.713Z,97.05
2017-01-19T07:02:16.784Z,98.00
2017-01-19T07:07:12.930Z,97.72
2017-01-19T07:12:09.563Z,98.19
2017-01-19T07:17:05.680Z,98.00
2017-01-19T07:22:03.143Z,97.43
2017-01-19T07:26:59.198Z,97.81
2017-01-19T07:31:55.801Z,97.34
2017-01-19T07:36:52.732Z,97.91
2017-01-19T07:41:49.010Z,97.43
2017-01-19T07:46:45.196Z,97.62
2017-01-19T07:51:41.369Z,97.62
2017-01-19T07:56:37.696Z,97.15
2017-01-19T08:01:33.984Z,96.68
2017-01-19T08:06:30.055Z,96.86
2017-01-19T08:11:26.412Z,96.86
2017-01-19T08:16:22.715Z,96.20
2017-01-19T08:21:19.058Z,96.68
2017-01-19T08:26:15.412Z,96.30
2017-01-19T08:31:11.631Z,96.20
2017-01-19T08:36:08.130Z,95.36
2017-01-19T08:41:05.084Z,95.92
2017-01-19T08:46:02.334Z,95.45
2017-01-19T08:50:58.501Z,95.26
2017-01-19T08:55:54.869Z,95.40
2017-01-19T09:00:50.962Z,94.74
2017-01-19T09:05:47.385Z,94.08
2017-01-19T09:10:43.587Z,93.42
2017-01-19T09:15:39.901Z,93.99
2017-01-19T09:20:36.286Z,94.18
2017-01-19T09:25:32.933Z,93.61
2017-01-19T09:30:29.872Z,93.70
2017-01-19T09:35:26.005Z,90.49
2017-01-19T09:40:23.321Z,89.40
2017-01-19T09:45:20.209Z,85.95
2017-01-19T09:50:16.891Z,85.10
2017-01-19T09:55:13.307Z,85.76
2017-01-19T10:00:10.672Z,85.72
2017-01-19T10:05:07.292Z,85.38
2017-01-19T10:10:03.804Z,83.21
2017-01-19T10:15:00.426Z,82.45
2017-01-19T10:19:57.720Z,81.79
2017-01-19T10:24:53.759Z,81.88
2017-01-19T10:29:50.136Z,80.84
2017-01-19T10:34:46.494Z,82.92
2017-01-19T10:39:43.073Z,80.46
2017-01-19T10:44:39.853Z,80.32
2017-01-19T10:49:36.329Z,79.18
2017-01-19T10:54:32.797Z,79.37
2017-01-19T10:59:29.212Z,80.04
2017-01-19T11:04:25.617Z,78.65
2017-01-19T11:09:22.311Z,78.52
2017-01-19T11:14:19.115Z,77.42
2017-01-19T11:19:15.720Z,68.59
2017-01-19T11:24:11.721Z,69.22
2017-01-19T11:29:08.198Z,68.65
2017-01-19T11:34:04.678Z,70.83
2017-01-19T11:39:00.919Z,70.74
2017-01-19T11:43:56.895Z,73.73
2017-01-19T11:48:52.779Z,77.58
2017-01-19T11:53:49.334Z,77.10
2017-01-19T11:58:46.005Z,72.06
2017-01-19T12:03:42.550Z,67.99
2017-01-19T12:08:39.062Z,67.24
2017-01-19T12:13:35.834Z,69.38
2017-01-19T12:18:32.498Z,71.02
2017-01-19T12:23:28.746Z,71.02
2017-01-19T12:28:24.897Z,70.32
2017-01-19T12:33:20.956Z,71.08
2017-01-19T12:38:17.228Z,70.32
2017-01-19T12:43:13.808Z,67.86
2017-01-19T12:48:10.114Z,66.06
2017-01-19T12:53:06.404Z,66.88
2017-01-19T12:58:02.740Z,67.58
2017-01-19T13:02:59.780Z,66.92
2017-01-19T13:07:56.200Z,64.83
2017-01-19T13:12:52.502Z,63.89
2017-01-19T13:17:48.860Z,65.40
2017-01-19T13:22:45.098Z,63.98
2017-01-19T13:27:42.639Z,62.18
2017-01-19T13:32:38.724Z,62.85
2017-01-19T13:37:35.264Z,63.04
2017-01-19T13:42:31.622Z,62.18
2017-01-19T13:47:27.850Z,62.09
2017-01-19T13:52:24.883Z,62.28
2017-01-19T13:57:21.264Z,63.89
2017-01-19T14:02:17.519Z,62.56
2017-01-19T14:07:14.094Z,61.36
2017-01-19T14:12:11.011Z,61.46
2017-01-19T14:17:07.811Z,59.56
2017-01-19T14:22:04.906Z,59.84
2017-01-19T14:27:02.015Z,61.65
2017-01-19T14:31:59.084Z,64.77
2017-01-19T14:36:55.283Z,65.91
2017-01-19T14:41:51.526Z,67.30
2017-01-19T14:46:47.680Z,67.77
2017-01-19T14:51:43.842Z,66.53
2017-01-19T14:56:40.144Z,67.49
2017-01-19T15:01:36.611Z,67.77
2017-01-19T15:06:32.448Z,67.86
2017-01-19T15:11:29.203Z,67.30
2017-01-19T15:16:25.503Z,66.73
2017-01-19T15:21:21.751Z,66.53
2017-01-19T15:26:17.952Z,66.22
2017-01-19T15:31:13.962Z,64.42
2017-01-19T15:36:10.323Z,66.13
2017-01-19T15:41:06.593Z,66.22
2017-01-19T15:46:03.396Z,67.74
2017-01-19T15:50:59.596Z,68.96
2017-01-19T15:55:55.799Z,70.48
2017-01-19T16:00:53.050Z,70.67
2017-01-19T16:05:49.332Z,70.95
2017-01-19T16:10:45.513Z,71.04
2017-01-19T16:15:41.783Z,70.86
2017-01-19T16:20:38.161Z,72.18
2017-01-19T16:25:34.463Z,72.85
2017-01-19T16:30:31.528Z,73.66
2017-01-19T16:35:28.440Z,75.45
2017-01-19T16:40:24.781Z,77.15
2017-01-19T16:45:21.916Z,77.72
2017-01-19T16:50:18.936Z,77.25
2017-01-19T16:55:15.220Z,78.76
2017-01-19T17:00:11.492Z,79.76
2017-01-19T17:05:07.979Z,79.57
2017-01-19T17:10:04.236Z,80.24
2017-01-19T17:15:00.498Z,79.95
2017-01-19T17:19:57.371Z,80.14
2017-01-19T17:24:53.527Z,79.57
2017-01-19T17:29:49.819Z,80.43
2017-01-19T17:34:46.157Z,82.12
2017-01-19T17:39:42.233Z,82.88
2017-01-19T17:44:39.294Z,83.07
2017-01-19T17:49:35.453Z,82.98
2017-01-19T17:54:31.707Z,83.92
2017-01-19T17:59:28.815Z,84.86
2017-01-19T18:04:25.414Z,85.72
2017-01-19T18:09:22.219Z,85.43
2017-01-19T18:14:18.855Z,85.72
2017-01-19T18:19:15.366Z,85.05
2017-01-19T18:24:12.188Z,85.05
2017-01-19T18:29:08.454Z,85.81
2017-01-19T18:34:04.582Z,85.96
2017-01-19T18:39:01.017Z,86.85
2017-01-19T18:43:57.161Z,86.66
2017-01-19T18:48:53.470Z,86.57
2017-01-19T18:53:49.896Z,87.47
2017-01-19T18:58:46.106Z,87.18
2017-01-19T19:03:42.200Z,87.28
2017-01-19T19:08:38.483Z,87.04
2017-01-19T19:13:34.737Z,85.91
2017-01-19T19:18:31.023Z,86.10
2017-01-19T19:23:27.379Z,85.91
2017-01-19T19:28:23.837Z,83.92
2017-01-19T19:33:20.109Z,85.81
2017-01-19T19:38:16.508Z,86.05
2017-01-19T19:43:13.412Z,86.80
2017-01-19T19:48:09.776Z,86.99
2017-01-19T19:53:06.013Z,87.47
2017-01-19T19:58:02.461Z,87.66
2017-01-19T20:02:58.784Z,85.62
2017-01-19T20:07:55.824Z,86.05
2017-01-19T20:12:52.335Z,85.53
2017-01-19T20:17:48.887Z,84.49
2017-01-19T20:22:44.815Z,85.15
2017-01-19T20:27:41.273Z,85.68
2017-01-19T20:32:37.525Z,85.39
2017-01-19T20:37:33.693Z,85.86
2017-01-19T20:42:30.553Z,85.77
2017-01-19T20:47:26.473Z,85.77
2017-01-19T20:52:22.707Z,86.80
2017-01-19T20:57:18.968Z,86.80
2017-01-19T21:02:16.374Z,87.28
2017-01-19T21:07:13.186Z,88.23
2017-01-19T21:12:09.384Z,88.51
2017-01-19T21:17:07.506Z,89.07
2017-01-19T21:22:04.020Z,89.92
2017-01-19T21:27:00.482Z,89.78
2017-01-19T21:31:56.913Z,89.50
2017-01-19T21:36:53.368Z,88.84
2017-01-19T21:41:49.524Z,88.42
2017-01-19T21:46:45.709Z,88.23
2017-01-19T21:51:42.001Z,87.94
2017-01-19T21:56:38.462Z,88.23
2017-01-19T22:01:35.412Z,87.18
2017-01-19T22:06:31.920Z,87.56
2017-01-19T22:11:28.520Z,88.46
2017-01-19T22:16:25.339Z,88.93
2017-01-19T22:21:21.672Z,89.12
2017-01-19T22:26:18.011Z,89.22
2017-01-19T22:31:14.517Z,88.93
2017-01-19T22:36:10.856Z,89.22
2017-01-19T22:41:07.813Z,89.50
2017-01-19T22:46:05.052Z,89.50
2017-01-19T22:51:01.474Z,90.26
2017-01-19T22:55:57.813Z,89.97
2017-01-19T23:00:54.292Z,90.73
2017-01-19T23:05:50.565Z,91.20
2017-01-19T23:10:47.017Z,91.67
2017-01-19T23:15:43.410Z,91.39
2017-01-19T23:20:40.440Z,89.97
2017-01-19T23:25:36.308Z,88.65
2017-01-19T23:30:32.742Z,88.37
2017-01-19T23:35:29.282Z,88.84
2017-01-19T23:40:25.627Z,88.93
2017-01-19T23:45:21.843Z,89.12
2017-01-19T23:50:17.935Z,90.45
2017-01-19T23:55:14.009Z,90.26
